sensor_id;sensor_type;location;lat;lon;timestamp;P1;durP1;ratioP1;P2;durP2;ratioP2
24547;SDS011;12713;51.624;4.924;2022-12-07T00:00:04;11.05;;;6.07;;
24547;SDS011;12713;51.624;4.924;2022-12-07T00:02:31;9.82;;;5.90;;
24547;SDS011;12713;51.624;4.924;2022-12-07T00:04:57;9.45;;;5.80;;
24547;SDS011;12713;51.624;4.924;2022-12-07T00:07:23;8.23;;;5.05;;
24547;SDS011;12713;51.624;4.924;2022-12-07T00:09:49;9.05;;;5.15;;
24547;SDS011;12713;51.624;4.924;2022-12-07T00:12:15;8.60;;;5.07;;
24547;SDS011;12713;51.624;4.924;2022-12-07T00:24:21;11.38;;;7.80;;
24547;SDS011;12713;51.624;4.924;2022-12-07T00:30:11;14.57;;;6.63;;
24547;SDS011;12713;51.624;4.924;2022-12-07T00:32:46;14.13;;;6.50;;
24547;SDS011;12713;51.624;4.924;2022-12-07T00:38:18;11.10;;;7.68;;
24547;SDS011;12713;51.624;4.924;2022-12-07T00:41:26;14.43;;;7.88;;
24547;SDS011;12713;51.624;4.924;2022-12-07T00:43:57;10.00;;;7.45;;
24547;SDS011;12713;51.624;4.924;2022-12-07T00:46:26;11.90;;;6.18;;
24547;SDS011;12713;51.624;4.924;2022-12-07T00:52:10;12.05;;;7.03;;
24547;SDS011;12713;51.624;4.924;2022-12-07T01:01:20;8.43;;;5.97;;
24547;SDS011;12713;51.624;4.924;2022-12-07T01:25:27;9.57;;;5.47;;
24547;SDS011;12713;51.624;4.924;2022-12-07T01:31:33;20.63;;;13.52;;
24547;SDS011;12713;51.624;4.924;2022-12-07T01:33:59;19.38;;;10.27;;
24547;SDS011;12713;51.624;4.924;2022-12-07T01:36:27;15.70;;;5.68;;
24547;SDS011;12713;51.624;4.924;2022-12-07T01:38:54;7.90;;;3.97;;
24547;SDS011;12713;51.624;4.924;2022-12-07T01:41:21;10.45;;;4.97;;
24547;SDS011;12713;51.624;4.924;2022-12-07T01:46:32;9.95;;;4.72;;
24547;SDS011;12713;51.624;4.924;2022-12-07T01:48:58;7.13;;;5.18;;
24547;SDS011;12713;51.624;4.924;2022-12-07T01:51:25;12.73;;;5.78;;
24547;SDS011;12713;51.624;4.924;2022-12-07T01:53:51;8.48;;;4.95;;
24547;SDS011;12713;51.624;4.924;2022-12-07T01:56:19;8.52;;;5.85;;
24547;SDS011;12713;51.624;4.924;2022-12-07T01:58:48;14.48;;;5.72;;
24547;SDS011;12713;51.624;4.924;2022-12-07T02:01:14;13.07;;;5.25;;
24547;SDS011;12713;51.624;4.924;2022-12-07T02:03:42;12.68;;;5.47;;
24547;SDS011;12713;51.624;4.924;2022-12-07T02:06:09;12.32;;;5.82;;
24547;SDS011;12713;51.624;4.924;2022-12-07T02:08:36;11.02;;;6.05;;
24547;SDS011;12713;51.624;4.924;2022-12-07T02:11:02;8.50;;;5.13;;
24547;SDS011;12713;51.624;4.924;2022-12-07T02:13:30;10.50;;;5.20;;
24547;SDS011;12713;51.624;4.924;2022-12-07T02:16:12;11.88;;;5.75;;
24547;SDS011;12713;51.624;4.924;2022-12-07T02:18:47;13.93;;;5.47;;
24547;SDS011;12713;51.624;4.924;2022-12-07T02:26:23;13.65;;;7.15;;
24547;SDS011;12713;51.624;4.924;2022-12-07T02:31:37;12.80;;;5.80;;
24547;SDS011;12713;51.624;4.924;2022-12-07T02:34:08;11.05;;;4.93;;
24547;SDS011;12713;51.624;4.924;2022-12-07T02:36:39;12.63;;;5.82;;
24547;SDS011;12713;51.624;4.924;2022-12-07T02:39:08;9.43;;;4.82;;
24547;SDS011;12713;51.624;4.924;2022-12-07T02:41:37;8.02;;;5.45;;
24547;SDS011;12713;51.624;4.924;2022-12-07T02:44:10;10.07;;;6.32;;
24547;SDS011;12713;51.624;4.924;2022-12-07T02:46:39;8.10;;;5.50;;
24547;SDS011;12713;51.624;4.924;2022-12-07T02:49:06;9.38;;;4.72;;
24547;SDS011;12713;51.624;4.924;2022-12-07T02:51:32;11.35;;;6.05;;
24547;SDS011;12713;51.624;4.924;2022-12-07T02:53:59;10.90;;;5.63;;
24547;SDS011;12713;51.624;4.924;2022-12-07T02:59:02;13.93;;;8.55;;
24547;SDS011;12713;51.624;4.924;2022-12-07T03:01:47;13.73;;;8.73;;
24547;SDS011;12713;51.624;4.924;2022-12-07T03:06:56;19.10;;;9.38;;
24547;SDS011;12713;51.624;4.924;2022-12-07T03:11:56;9.30;;;7.43;;
24547;SDS011;12713;51.624;4.924;2022-12-07T03:14:30;14.43;;;7.97;;
24547;SDS011;12713;51.624;4.924;2022-12-07T03:17:06;13.38;;;8.07;;
24547;SDS011;12713;51.624;4.924;2022-12-07T03:19:34;21.30;;;10.40;;
24547;SDS011;12713;51.624;4.924;2022-12-07T03:22:02;10.70;;;8.25;;
24547;SDS011;12713;51.624;4.924;2022-12-07T03:24:36;17.90;;;7.88;;
24547;SDS011;12713;51.624;4.924;2022-12-07T03:27:06;18.25;;;8.30;;
24547;SDS011;12713;51.624;4.924;2022-12-07T03:29:41;13.32;;;8.60;;
24547;SDS011;12713;51.624;4.924;2022-12-07T03:32:20;21.27;;;8.75;;
24547;SDS011;12713;51.624;4.924;2022-12-07T03:37:37;12.93;;;7.78;;
24547;SDS011;12713;51.624;4.924;2022-12-07T03:40:13;10.23;;;7.05;;
24547;SDS011;12713;51.624;4.924;2022-12-07T03:42:41;13.07;;;8.35;;
24547;SDS011;12713;51.624;4.924;2022-12-07T03:45:08;11.80;;;8.30;;
24547;SDS011;12713;51.624;4.924;2022-12-07T03:47:36;10.35;;;7.68;;
24547;SDS011;12713;51.624;4.924;2022-12-07T03:50:10;11.23;;;8.73;;
24547;SDS011;12713;51.624;4.924;2022-12-07T03:52:45;9.95;;;7.53;;
24547;SDS011;12713;51.624;4.924;2022-12-07T03:57:46;12.40;;;9.00;;
24547;SDS011;12713;51.624;4.924;2022-12-07T04:00:15;12.30;;;7.90;;
24547;SDS011;12713;51.624;4.924;2022-12-07T04:02:41;12.15;;;8.82;;
24547;SDS011;12713;51.624;4.924;2022-12-07T04:05:08;16.52;;;11.07;;
24547;SDS011;12713;51.624;4.924;2022-12-07T04:07:34;13.18;;;9.50;;
24547;SDS011;12713;51.624;4.924;2022-12-07T04:10:00;16.77;;;10.88;;
24547;SDS011;12713;51.624;4.924;2022-12-07T04:12:26;21.75;;;12.27;;
24547;SDS011;12713;51.624;4.924;2022-12-07T04:14:52;16.58;;;12.27;;
24547;SDS011;12713;51.624;4.924;2022-12-07T04:17:18;17.55;;;11.40;;
24547;SDS011;12713;51.624;4.924;2022-12-07T04:19:44;23.80;;;13.52;;
24547;SDS011;12713;51.624;4.924;2022-12-07T04:22:10;28.05;;;14.10;;
24547;SDS011;12713;51.624;4.924;2022-12-07T04:24:36;19.58;;;12.98;;
24547;SDS011;12713;51.624;4.924;2022-12-07T04:27:02;17.48;;;12.68;;
24547;SDS011;12713;51.624;4.924;2022-12-07T04:29:28;20.48;;;13.35;;
24547;SDS011;12713;51.624;4.924;2022-12-07T04:31:54;22.40;;;11.82;;
24547;SDS011;12713;51.624;4.924;2022-12-07T04:34:20;15.50;;;9.15;;
24547;SDS011;12713;51.624;4.924;2022-12-07T04:36:47;17.23;;;9.27;;
24547;SDS011;12713;51.624;4.924;2022-12-07T04:39:17;14.63;;;8.98;;
24547;SDS011;12713;51.624;4.924;2022-12-07T04:41:47;15.77;;;9.63;;
24547;SDS011;12713;51.624;4.924;2022-12-07T04:44:13;17.63;;;9.55;;
24547;SDS011;12713;51.624;4.924;2022-12-07T04:46:39;15.52;;;9.35;;
24547;SDS011;12713;51.624;4.924;2022-12-07T04:49:06;16.90;;;10.05;;
24547;SDS011;12713;51.624;4.924;2022-12-07T04:51:34;16.38;;;11.40;;
24547;SDS011;12713;51.624;4.924;2022-12-07T04:54:01;21.38;;;10.18;;
24547;SDS011;12713;51.624;4.924;2022-12-07T04:56:27;19.05;;;10.27;;
24547;SDS011;12713;51.624;4.924;2022-12-07T04:58:53;14.27;;;10.52;;
24547;SDS011;12713;51.624;4.924;2022-12-07T05:01:19;14.30;;;9.73;;
24547;SDS011;12713;51.624;4.924;2022-12-07T05:03:45;15.00;;;9.32;;
24547;SDS011;12713;51.624;4.924;2022-12-07T05:06:12;15.07;;;8.70;;
24547;SDS011;12713;51.624;4.924;2022-12-07T05:08:42;15.38;;;8.48;;
24547;SDS011;12713;51.624;4.924;2022-12-07T05:11:08;16.83;;;9.65;;
24547;SDS011;12713;51.624;4.924;2022-12-07T05:13:35;15.27;;;9.10;;
24547;SDS011;12713;51.624;4.924;2022-12-07T05:16:01;16.08;;;8.10;;
24547;SDS011;12713;51.624;4.924;2022-12-07T05:18:28;11.30;;;7.13;;
24547;SDS011;12713;51.624;4.924;2022-12-07T05:20:54;13.05;;;7.68;;
24547;SDS011;12713;51.624;4.924;2022-12-07T05:23:20;13.15;;;7.15;;
24547;SDS011;12713;51.624;4.924;2022-12-07T05:25:46;13.20;;;7.93;;
24547;SDS011;12713;51.624;4.924;2022-12-07T05:28:12;12.05;;;7.93;;
24547;SDS011;12713;51.624;4.924;2022-12-07T05:30:38;15.30;;;8.95;;
24547;SDS011;12713;51.624;4.924;2022-12-07T05:33:06;14.52;;;7.70;;
24547;SDS011;12713;51.624;4.924;2022-12-07T05:35:35;12.68;;;7.00;;
24547;SDS011;12713;51.624;4.924;2022-12-07T05:38:02;15.10;;;8.50;;
24547;SDS011;12713;51.624;4.924;2022-12-07T05:40:31;10.15;;;7.28;;
24547;SDS011;12713;51.624;4.924;2022-12-07T05:42:57;14.07;;;8.00;;
24547;SDS011;12713;51.624;4.924;2022-12-07T05:45:23;14.57;;;7.78;;
24547;SDS011;12713;51.624;4.924;2022-12-07T05:47:49;12.18;;;7.50;;
24547;SDS011;12713;51.624;4.924;2022-12-07T05:50:15;13.13;;;7.65;;
24547;SDS011;12713;51.624;4.924;2022-12-07T05:52:44;14.32;;;7.65;;
24547;SDS011;12713;51.624;4.924;2022-12-07T05:55:13;11.50;;;7.15;;
24547;SDS011;12713;51.624;4.924;2022-12-07T05:57:42;10.32;;;7.30;;
24547;SDS011;12713;51.624;4.924;2022-12-07T06:00:31;10.20;;;6.50;;
24547;SDS011;12713;51.624;4.924;2022-12-07T06:03:00;10.93;;;7.00;;
24547;SDS011;12713;51.624;4.924;2022-12-07T06:05:26;10.77;;;6.05;;
24547;SDS011;12713;51.624;4.924;2022-12-07T06:07:52;14.32;;;7.63;;
24547;SDS011;12713;51.624;4.924;2022-12-07T06:10:23;11.23;;;6.88;;
24547;SDS011;12713;51.624;4.924;2022-12-07T06:12:53;13.02;;;7.70;;
24547;SDS011;12713;51.624;4.924;2022-12-07T06:15:19;11.55;;;6.00;;
24547;SDS011;12713;51.624;4.924;2022-12-07T06:17:47;10.55;;;6.80;;
24547;SDS011;12713;51.624;4.924;2022-12-07T06:20:13;10.52;;;6.55;;
24547;SDS011;12713;51.624;4.924;2022-12-07T06:22:40;11.13;;;5.68;;
24547;SDS011;12713;51.624;4.924;2022-12-07T06:25:06;10.27;;;6.50;;
24547;SDS011;12713;51.624;4.924;2022-12-07T06:27:32;14.10;;;6.80;;
24547;SDS011;12713;51.624;4.924;2022-12-07T06:29:58;12.98;;;6.60;;
24547;SDS011;12713;51.624;4.924;2022-12-07T06:32:24;12.05;;;6.47;;
24547;SDS011;12713;51.624;4.924;2022-12-07T06:34:51;13.32;;;6.15;;
24547;SDS011;12713;51.624;4.924;2022-12-07T06:37:17;13.65;;;7.30;;
24547;SDS011;12713;51.624;4.924;2022-12-07T06:39:43;15.05;;;8.70;;
24547;SDS011;12713;51.624;4.924;2022-12-07T06:42:09;29.23;;;15.95;;
24547;SDS011;12713;51.624;4.924;2022-12-07T06:44:35;20.63;;;12.85;;
24547;SDS011;12713;51.624;4.924;2022-12-07T06:47:01;27.92;;;15.73;;
24547;SDS011;12713;51.624;4.924;2022-12-07T06:49:29;16.00;;;10.43;;
24547;SDS011;12713;51.624;4.924;2022-12-07T06:51:55;17.30;;;7.88;;
24547;SDS011;12713;51.624;4.924;2022-12-07T06:54:21;19.67;;;8.70;;
24547;SDS011;12713;51.624;4.924;2022-12-07T06:56:47;12.02;;;7.22;;
24547;SDS011;12713;51.624;4.924;2022-12-07T06:59:13;15.95;;;8.40;;
24547;SDS011;12713;51.624;4.924;2022-12-07T07:01:39;13.35;;;8.20;;
24547;SDS011;12713;51.624;4.924;2022-12-07T07:04:05;13.98;;;7.57;;
24547;SDS011;12713;51.624;4.924;2022-12-07T07:06:31;12.15;;;7.88;;
24547;SDS011;12713;51.624;4.924;2022-12-07T07:08:58;15.45;;;9.13;;
24547;SDS011;12713;51.624;4.924;2022-12-07T07:11:24;14.00;;;7.97;;
24547;SDS011;12713;51.624;4.924;2022-12-07T07:13:50;19.52;;;9.38;;
24547;SDS011;12713;51.624;4.924;2022-12-07T07:16:16;16.77;;;9.60;;
24547;SDS011;12713;51.624;4.924;2022-12-07T07:18:43;16.25;;;8.40;;
24547;SDS011;12713;51.624;4.924;2022-12-07T07:21:09;15.57;;;8.05;;
24547;SDS011;12713;51.624;4.924;2022-12-07T07:23:35;14.20;;;9.65;;
24547;SDS011;12713;51.624;4.924;2022-12-07T07:26:01;23.08;;;10.82;;
24547;SDS011;12713;51.624;4.924;2022-12-07T07:28:30;16.95;;;9.82;;
24547;SDS011;12713;51.624;4.924;2022-12-07T07:30:59;16.88;;;10.55;;
24547;SDS011;12713;51.624;4.924;2022-12-07T07:33:25;14.82;;;9.82;;
24547;SDS011;12713;51.624;4.924;2022-12-07T07:35:51;12.95;;;8.90;;
24547;SDS011;12713;51.624;4.924;2022-12-07T07:38:17;15.27;;;9.07;;
24547;SDS011;12713;51.624;4.924;2022-12-07T07:40:44;19.48;;;8.30;;
24547;SDS011;12713;51.624;4.924;2022-12-07T07:43:10;17.48;;;8.30;;
24547;SDS011;12713;51.624;4.924;2022-12-07T07:45:36;13.82;;;7.72;;
24547;SDS011;12713;51.624;4.924;2022-12-07T07:48:02;14.25;;;8.05;;
24547;SDS011;12713;51.624;4.924;2022-12-07T07:50:28;13.57;;;8.32;;
24547;SDS011;12713;51.624;4.924;2022-12-07T07:52:56;16.48;;;8.18;;
24547;SDS011;12713;51.624;4.924;2022-12-07T07:55:22;15.90;;;8.75;;
24547;SDS011;12713;51.624;4.924;2022-12-07T07:57:48;11.48;;;7.28;;
24547;SDS011;12713;51.624;4.924;2022-12-07T08:00:15;16.20;;;7.43;;
24547;SDS011;12713;51.624;4.924;2022-12-07T08:02:41;13.93;;;7.60;;
24547;SDS011;12713;51.624;4.924;2022-12-07T08:05:10;15.82;;;7.65;;
24547;SDS011;12713;51.624;4.924;2022-12-07T08:07:37;15.60;;;7.18;;
24547;SDS011;12713;51.624;4.924;2022-12-07T08:10:03;15.20;;;7.20;;
24547;SDS011;12713;51.624;4.924;2022-12-07T08:12:29;11.35;;;7.22;;
24547;SDS011;12713;51.624;4.924;2022-12-07T08:14:55;12.90;;;7.90;;
24547;SDS011;12713;51.624;4.924;2022-12-07T08:17:22;12.13;;;7.60;;
24547;SDS011;12713;51.624;4.924;2022-12-07T08:19:50;17.02;;;8.57;;
24547;SDS011;12713;51.624;4.924;2022-12-07T08:22:16;9.60;;;5.88;;
24547;SDS011;12713;51.624;4.924;2022-12-07T08:24:44;17.05;;;8.98;;
24547;SDS011;12713;51.624;4.924;2022-12-07T08:27:12;13.02;;;7.32;;
24547;SDS011;12713;51.624;4.924;2022-12-07T08:29:38;8.13;;;6.38;;
24547;SDS011;12713;51.624;4.924;2022-12-07T08:34:41;8.85;;;6.20;;
24547;SDS011;12713;51.624;4.924;2022-12-07T08:37:11;10.38;;;5.95;;
24547;SDS011;12713;51.624;4.924;2022-12-07T08:39:41;9.23;;;5.47;;
24547;SDS011;12713;51.624;4.924;2022-12-07T08:42:09;8.95;;;5.60;;
24547;SDS011;12713;51.624;4.924;2022-12-07T08:44:36;17.70;;;8.40;;
24547;SDS011;12713;51.624;4.924;2022-12-07T08:47:09;14.85;;;8.75;;
24547;SDS011;12713;51.624;4.924;2022-12-07T08:49:36;16.95;;;8.68;;
24547;SDS011;12713;51.624;4.924;2022-12-07T08:52:12;15.43;;;8.32;;
24547;SDS011;12713;51.624;4.924;2022-12-07T08:54:41;14.50;;;7.75;;
24547;SDS011;12713;51.624;4.924;2022-12-07T08:57:10;16.45;;;6.55;;
24547;SDS011;12713;51.624;4.924;2022-12-07T08:59:37;15.48;;;6.80;;
24547;SDS011;12713;51.624;4.924;2022-12-07T09:02:04;11.40;;;6.70;;
24547;SDS011;12713;51.624;4.924;2022-12-07T09:04:30;19.23;;;7.55;;
24547;SDS011;12713;51.624;4.924;2022-12-07T09:06:56;17.65;;;7.45;;
24547;SDS011;12713;51.624;4.924;2022-12-07T09:09:22;16.58;;;7.28;;
24547;SDS011;12713;51.624;4.924;2022-12-07T09:11:48;17.30;;;7.43;;
24547;SDS011;12713;51.624;4.924;2022-12-07T09:14:14;14.20;;;7.53;;
24547;SDS011;12713;51.624;4.924;2022-12-07T09:16:42;19.65;;;8.07;;
24547;SDS011;12713;51.624;4.924;2022-12-07T09:19:08;15.50;;;7.70;;
24547;SDS011;12713;51.624;4.924;2022-12-07T09:21:36;13.48;;;6.03;;
24547;SDS011;12713;51.624;4.924;2022-12-07T09:24:03;13.93;;;7.07;;
24547;SDS011;12713;51.624;4.924;2022-12-07T09:26:29;18.80;;;8.93;;
24547;SDS011;12713;51.624;4.924;2022-12-07T09:28:55;10.93;;;6.93;;
24547;SDS011;12713;51.624;4.924;2022-12-07T09:31:21;15.88;;;7.32;;
24547;SDS011;12713;51.624;4.924;2022-12-07T09:33:52;18.08;;;8.40;;
24547;SDS011;12713;51.624;4.924;2022-12-07T09:36:24;14.90;;;6.20;;
24547;SDS011;12713;51.624;4.924;2022-12-07T09:38:50;14.15;;;6.15;;
24547;SDS011;12713;51.624;4.924;2022-12-07T09:41:17;13.75;;;5.70;;
24547;SDS011;12713;51.624;4.924;2022-12-07T09:43:43;13.45;;;6.00;;
24547;SDS011;12713;51.624;4.924;2022-12-07T09:46:13;12.57;;;4.80;;
24547;SDS011;12713;51.624;4.924;2022-12-07T09:48:39;14.07;;;5.70;;
24547;SDS011;12713;51.624;4.924;2022-12-07T09:51:19;12.35;;;5.60;;
24547;SDS011;12713;51.624;4.924;2022-12-07T09:53:45;8.68;;;4.03;;
24547;SDS011;12713;51.624;4.924;2022-12-07T09:56:15;12.30;;;5.72;;
24547;SDS011;12713;51.624;4.924;2022-12-07T09:58:43;13.65;;;6.70;;
24547;SDS011;12713;51.624;4.924;2022-12-07T10:03:36;13.32;;;5.20;;
24547;SDS011;12713;51.624;4.924;2022-12-07T10:06:03;11.77;;;4.90;;
24547;SDS011;12713;51.624;4.924;2022-12-07T10:08:30;9.43;;;5.13;;
24547;SDS011;12713;51.624;4.924;2022-12-07T10:10:56;25.77;;;5.93;;
24547;SDS011;12713;51.624;4.924;2022-12-07T10:18:51;11.13;;;4.43;;
24547;SDS011;12713;51.624;4.924;2022-12-07T10:21:18;13.25;;;4.75;;
24547;SDS011;12713;51.624;4.924;2022-12-07T10:24:01;7.45;;;3.13;;
24547;SDS011;12713;51.624;4.924;2022-12-07T10:29:37;8.98;;;3.95;;
24547;SDS011;12713;51.624;4.924;2022-12-07T10:31:45;13.88;;;4.22;;
24547;SDS011;12713;51.624;4.924;2022-12-07T10:34:30;12.50;;;3.70;;
24547;SDS011;12713;51.624;4.924;2022-12-07T10:37:11;9.10;;;3.17;;
24547;SDS011;12713;51.624;4.924;2022-12-07T10:39:56;13.20;;;3.45;;
24547;SDS011;12713;51.624;4.924;2022-12-07T10:47:42;14.77;;;2.83;;
24547;SDS011;12713;51.624;4.924;2022-12-07T10:50:18;14.55;;;3.05;;
24547;SDS011;12713;51.624;4.924;2022-12-07T10:53:05;17.42;;;4.15;;
24547;SDS011;12713;51.624;4.924;2022-12-07T11:03:51;5.13;;;2.15;;
24547;SDS011;12713;51.624;4.924;2022-12-07T11:14:24;9.88;;;3.70;;
24547;SDS011;12713;51.624;4.924;2022-12-07T11:17:02;11.85;;;2.42;;
24547;SDS011;12713;51.624;4.924;2022-12-07T11:27:48;13.77;;;2.95;;
24547;SDS011;12713;51.624;4.924;2022-12-07T11:30:14;14.07;;;3.05;;
24547;SDS011;12713;51.624;4.924;2022-12-07T11:37:47;9.88;;;3.28;;
24547;SDS011;12713;51.624;4.924;2022-12-07T11:40:25;7.53;;;2.28;;
24547;SDS011;12713;51.624;4.924;2022-12-07T11:43:27;6.45;;;1.90;;
24547;SDS011;12713;51.624;4.924;2022-12-07T11:45:47;9.10;;;1.90;;
24547;SDS011;12713;51.624;4.924;2022-12-07T11:48:22;7.75;;;2.05;;
24547;SDS011;12713;51.624;4.924;2022-12-07T11:50:54;4.72;;;1.77;;
24547;SDS011;12713;51.624;4.924;2022-12-07T11:53:33;6.15;;;2.20;;
24547;SDS011;12713;51.624;4.924;2022-12-07T11:56:14;6.80;;;1.70;;
24547;SDS011;12713;51.624;4.924;2022-12-07T12:04:01;8.23;;;1.83;;
24547;SDS011;12713;51.624;4.924;2022-12-07T12:06:29;8.18;;;1.85;;
24547;SDS011;12713;51.624;4.924;2022-12-07T12:09:00;8.07;;;2.15;;
24547;SDS011;12713;51.624;4.924;2022-12-07T12:20:00;3.28;;;1.50;;
24547;SDS011;12713;51.624;4.924;2022-12-07T12:22:33;7.07;;;1.70;;
24547;SDS011;12713;51.624;4.924;2022-12-07T12:25:04;7.00;;;1.70;;
24547;SDS011;12713;51.624;4.924;2022-12-07T12:27:34;7.43;;;1.58;;
24547;SDS011;12713;51.624;4.924;2022-12-07T12:30:02;3.45;;;1.33;;
24547;SDS011;12713;51.624;4.924;2022-12-07T12:32:34;7.28;;;1.67;;
24547;SDS011;12713;51.624;4.924;2022-12-07T12:37:48;11.27;;;2.40;;
24547;SDS011;12713;51.624;4.924;2022-12-07T12:42:47;8.52;;;2.08;;
24547;SDS011;12713;51.624;4.924;2022-12-07T12:45:21;13.88;;;3.10;;
24547;SDS011;12713;51.624;4.924;2022-12-07T12:47:55;8.57;;;3.22;;
24547;SDS011;12713;51.624;4.924;2022-12-07T12:50:25;8.60;;;4.25;;
24547;SDS011;12713;51.624;4.924;2022-12-07T12:52:53;8.00;;;3.63;;
24547;SDS011;12713;51.624;4.924;2022-12-07T12:55:22;7.07;;;3.47;;
24547;SDS011;12713;51.624;4.924;2022-12-07T12:58:35;10.68;;;4.38;;
24547;SDS011;12713;51.624;4.924;2022-12-07T13:00:36;15.20;;;3.03;;
24547;SDS011;12713;51.624;4.924;2022-12-07T13:03:02;8.32;;;2.63;;
24547;SDS011;12713;51.624;4.924;2022-12-07T13:05:29;10.52;;;2.53;;
24547;SDS011;12713;51.624;4.924;2022-12-07T13:08:13;6.03;;;2.30;;
24547;SDS011;12713;51.624;4.924;2022-12-07T13:10:43;4.38;;;2.13;;
24547;SDS011;12713;51.624;4.924;2022-12-07T13:15:54;6.30;;;2.03;;
24547;SDS011;12713;51.624;4.924;2022-12-07T13:18:25;10.20;;;2.05;;
24547;SDS011;12713;51.624;4.924;2022-12-07T13:28:32;4.40;;;1.23;;
24547;SDS011;12713;51.624;4.924;2022-12-07T13:33:34;5.90;;;1.58;;
24547;SDS011;12713;51.624;4.924;2022-12-07T13:36:00;4.75;;;1.27;;
24547;SDS011;12713;51.624;4.924;2022-12-07T13:38:31;4.85;;;1.45;;
24547;SDS011;12713;51.624;4.924;2022-12-07T13:41:15;4.82;;;1.33;;
24547;SDS011;12713;51.624;4.924;2022-12-07T13:43:59;4.50;;;1.45;;
24547;SDS011;12713;51.624;4.924;2022-12-07T13:46:32;3.40;;;2.13;;
24547;SDS011;12713;51.624;4.924;2022-12-07T13:48:59;5.78;;;1.30;;
24547;SDS011;12713;51.624;4.924;2022-12-07T13:51:26;3.17;;;1.05;;
24547;SDS011;12713;51.624;4.924;2022-12-07T13:53:59;3.00;;;1.10;;
24547;SDS011;12713;51.624;4.924;2022-12-07T13:56:28;4.50;;;1.25;;
24547;SDS011;12713;51.624;4.924;2022-12-07T13:58:57;4.80;;;1.42;;
24547;SDS011;12713;51.624;4.924;2022-12-07T14:01:24;3.35;;;1.70;;
24547;SDS011;12713;51.624;4.924;2022-12-07T14:03:50;5.43;;;1.90;;
24547;SDS011;12713;51.624;4.924;2022-12-07T14:06:17;3.80;;;2.05;;
24547;SDS011;12713;51.624;4.924;2022-12-07T14:08:44;6.72;;;2.75;;
24547;SDS011;12713;51.624;4.924;2022-12-07T14:11:17;3.03;;;2.35;;
24547;SDS011;12713;51.624;4.924;2022-12-07T14:13:49;5.45;;;1.75;;
24547;SDS011;12713;51.624;4.924;2022-12-07T14:18:43;4.68;;;2.20;;
24547;SDS011;12713;51.624;4.924;2022-12-07T14:23:36;4.15;;;1.60;;
24547;SDS011;12713;51.624;4.924;2022-12-07T14:26:16;5.78;;;2.00;;
24547;SDS011;12713;51.624;4.924;2022-12-07T14:28:44;5.50;;;1.73;;
24547;SDS011;12713;51.624;4.924;2022-12-07T14:31:11;5.85;;;1.90;;
24547;SDS011;12713;51.624;4.924;2022-12-07T14:33:38;6.55;;;1.55;;
24547;SDS011;12713;51.624;4.924;2022-12-07T14:36:04;8.25;;;2.15;;
24547;SDS011;12713;51.624;4.924;2022-12-07T14:38:30;6.57;;;2.25;;
24547;SDS011;12713;51.624;4.924;2022-12-07T14:40:56;5.45;;;1.83;;
24547;SDS011;12713;51.624;4.924;2022-12-07T14:43:41;6.38;;;2.40;;
24547;SDS011;12713;51.624;4.924;2022-12-07T14:46:08;5.63;;;2.20;;
24547;SDS011;12713;51.624;4.924;2022-12-07T14:48:35;9.75;;;2.17;;
24547;SDS011;12713;51.624;4.924;2022-12-07T14:51:01;3.45;;;2.00;;
24547;SDS011;12713;51.624;4.924;2022-12-07T14:53:30;4.97;;;2.40;;
24547;SDS011;12713;51.624;4.924;2022-12-07T14:56:00;5.28;;;2.28;;
24547;SDS011;12713;51.624;4.924;2022-12-07T14:58:29;12.35;;;2.78;;
24547;SDS011;12713;51.624;4.924;2022-12-07T15:00:58;6.45;;;2.28;;
24547;SDS011;12713;51.624;4.924;2022-12-07T15:03:25;4.28;;;2.05;;
24547;SDS011;12713;51.624;4.924;2022-12-07T15:05:51;5.15;;;3.22;;
24547;SDS011;12713;51.624;4.924;2022-12-07T15:08:17;5.57;;;3.38;;
24547;SDS011;12713;51.624;4.924;2022-12-07T15:10:43;5.85;;;2.60;;
24547;SDS011;12713;51.624;4.924;2022-12-07T15:13:09;6.88;;;3.00;;
24547;SDS011;12713;51.624;4.924;2022-12-07T15:15:54;4.65;;;1.90;;
24547;SDS011;12713;51.624;4.924;2022-12-07T15:18:20;5.30;;;1.85;;
24547;SDS011;12713;51.624;4.924;2022-12-07T15:20:47;4.05;;;2.30;;
24547;SDS011;12713;51.624;4.924;2022-12-07T15:23:13;6.70;;;2.38;;
24547;SDS011;12713;51.624;4.924;2022-12-07T15:25:40;7.40;;;2.38;;
24547;SDS011;12713;51.624;4.924;2022-12-07T15:28:07;7.30;;;1.88;;
24547;SDS011;12713;51.624;4.924;2022-12-07T15:30:33;2.80;;;1.50;;
24547;SDS011;12713;51.624;4.924;2022-12-07T15:32:59;9.70;;;3.42;;
24547;SDS011;12713;51.624;4.924;2022-12-07T15:35:25;8.20;;;3.80;;
24547;SDS011;12713;51.624;4.924;2022-12-07T15:37:51;4.70;;;3.53;;
24547;SDS011;12713;51.624;4.924;2022-12-07T15:40:19;7.00;;;2.42;;
24547;SDS011;12713;51.624;4.924;2022-12-07T15:42:45;2.65;;;2.00;;
24547;SDS011;12713;51.624;4.924;2022-12-07T15:45:11;5.05;;;1.50;;
24547;SDS011;12713;51.624;4.924;2022-12-07T15:47:41;6.15;;;1.42;;
24547;SDS011;12713;51.624;4.924;2022-12-07T15:50:08;5.97;;;1.63;;
24547;SDS011;12713;51.624;4.924;2022-12-07T15:52:35;4.40;;;1.25;;
24547;SDS011;12713;51.624;4.924;2022-12-07T15:55:01;5.22;;;1.50;;
24547;SDS011;12713;51.624;4.924;2022-12-07T15:57:35;4.25;;;1.48;;
24547;SDS011;12713;51.624;4.924;2022-12-07T16:00:02;3.65;;;1.52;;
24547;SDS011;12713;51.624;4.924;2022-12-07T16:02:29;5.00;;;1.77;;
24547;SDS011;12713;51.624;4.924;2022-12-07T16:04:55;3.40;;;1.88;;
24547;SDS011;12713;51.624;4.924;2022-12-07T16:07:21;7.40;;;2.03;;
24547;SDS011;12713;51.624;4.924;2022-12-07T16:09:47;4.18;;;1.98;;
24547;SDS011;12713;51.624;4.924;2022-12-07T16:12:14;8.77;;;2.67;;
24547;SDS011;12713;51.624;4.924;2022-12-07T16:14:41;8.90;;;2.55;;
24547;SDS011;12713;51.624;4.924;2022-12-07T16:17:07;5.38;;;2.35;;
24547;SDS011;12713;51.624;4.924;2022-12-07T16:19:35;5.57;;;3.28;;
24547;SDS011;12713;51.624;4.924;2022-12-07T16:22:02;4.78;;;2.63;;
24547;SDS011;12713;51.624;4.924;2022-12-07T16:24:32;9.18;;;2.80;;
24547;SDS011;12713;51.624;4.924;2022-12-07T16:26:58;4.88;;;2.58;;
24547;SDS011;12713;51.624;4.924;2022-12-07T16:29:24;5.03;;;3.00;;
24547;SDS011;12713;51.624;4.924;2022-12-07T16:31:50;5.85;;;2.85;;
24547;SDS011;12713;51.624;4.924;2022-12-07T16:34:17;5.82;;;3.13;;
24547;SDS011;12713;51.624;4.924;2022-12-07T16:36:43;6.63;;;2.97;;
24547;SDS011;12713;51.624;4.924;2022-12-07T16:39:09;4.10;;;3.03;;
24547;SDS011;12713;51.624;4.924;2022-12-07T16:41:35;4.47;;;3.45;;
24547;SDS011;12713;51.624;4.924;2022-12-07T16:44:03;7.82;;;3.92;;
24547;SDS011;12713;51.624;4.924;2022-12-07T16:46:35;5.82;;;3.35;;
24547;SDS011;12713;51.624;4.924;2022-12-07T16:49:01;8.38;;;3.47;;
24547;SDS011;12713;51.624;4.924;2022-12-07T16:51:28;5.95;;;2.72;;
24547;SDS011;12713;51.624;4.924;2022-12-07T16:53:54;12.32;;;4.20;;
24547;SDS011;12713;51.624;4.924;2022-12-07T16:56:20;9.05;;;4.35;;
24547;SDS011;12713;51.624;4.924;2022-12-07T16:58:46;6.25;;;3.40;;
24547;SDS011;12713;51.624;4.924;2022-12-07T17:01:15;5.75;;;3.00;;
24547;SDS011;12713;51.624;4.924;2022-12-07T17:03:42;6.05;;;3.58;;
24547;SDS011;12713;51.624;4.924;2022-12-07T17:06:12;6.95;;;3.75;;
24547;SDS011;12713;51.624;4.924;2022-12-07T17:08:39;6.85;;;3.35;;
24547;SDS011;12713;51.624;4.924;2022-12-07T17:11:15;8.13;;;2.90;;
24547;SDS011;12713;51.624;4.924;2022-12-07T17:13:41;8.43;;;3.25;;
24547;SDS011;12713;51.624;4.924;2022-12-07T17:16:25;12.43;;;5.18;;
24547;SDS011;12713;51.624;4.924;2022-12-07T17:18:51;6.95;;;4.38;;
24547;SDS011;12713;51.624;4.924;2022-12-07T17:21:18;7.25;;;3.70;;
24547;SDS011;12713;51.624;4.924;2022-12-07T17:32:36;9.05;;;3.35;;
24547;SDS011;12713;51.624;4.924;2022-12-07T17:35:02;7.28;;;3.72;;